Time;durP1;ratioP1;P1;durP2;ratioP2;P2;SDS_P1;SDS_P2;PMS_P1;PMS_P2;Temp;Humidity;BMP_temperature;BMP_pressure;BME280_temperature;BME280_humidity;BME280_pressure;Samples;Min_cycle;Max_cycle;Signal;HPM_P1;HPM_P2
2021/10/11 00:02:29;;;;;;;27.30;11.50;;;;;;;;;;4871496;29;20225;-90
2021/10/11 00:05:41;;;;;;;21.00;10.70;;;;;;;;;;4869241;29;20198;-89
2021/10/11 00:08:53;;;;;;;21.10;10.77;;;;;;;;;;4869687;29;20198;-88
2021/10/11 00:12:05;;;;;;;23.47;10.87;;;;;;;;;;4871460;29;20221;-89
2021/10/11 00:15:19;;;;;;;25.37;11.77;;;;;;;;;;4870931;29;20389;-89
2021/10/11 00:18:31;;;;;;;23.23;10.87;;;;;;;;;;4869962;29;20367;-90
2021/10/11 00:21:43;;;;;;;25.33;11.13;;;;;;;;;;4869441;29;20254;-90
2021/10/11 00:24:55;;;;;;;28.20;11.87;;;;;;;;;;4869063;29;20273;-88
2021/10/11 00:28:07;;;;;;;27.77;11.23;;;;;;;;;;4868963;29;20202;-89
2021/10/11 00:31:20;;;;;;;27.27;11.63;;;;;;;;;;4869453;29;20233;-89
2021/10/11 00:34:32;;;;;;;24.40;11.03;;;;;;;;;;4867601;29;20189;-88
2021/10/11 00:37:44;;;;;;;27.30;11.50;;;;;;;;;;4866756;29;20194;-89
2021/10/11 00:40:56;;;;;;;27.70;11.10;;;;;;;;;;4867618;29;20312;-90
2021/10/11 00:44:07;;;;;;;27.13;12.77;;;;;;;;;;4867768;29;20193;-90
2021/10/11 00:47:20;;;;;;;23.47;11.60;;;;;;;;;;4866331;29;20202;-89
2021/10/11 00:50:33;;;;;;;26.13;11.23;;;;;;;;;;4867588;29;20506;-89
2021/10/11 00:53:44;;;;;;;29.43;12.17;;;;;;;;;;4867219;29;20290;-88
2021/10/11 00:57:00;;;;;;;27.23;10.93;;;;;;;;;;4867171;29;20905;-88
2021/10/11 01:00:12;;;;;;;23.97;10.67;;;;;;;;;;4869915;29;20754;-88
2021/10/11 01:03:25;;;;;;;23.07;10.93;;;;;;;;;;4871296;29;20205;-89
2021/10/11 01:06:38;;;;;;;24.87;10.93;;;;;;;;;;4870868;29;20216;-89
2021/10/11 01:09:50;;;;;;;27.67;10.93;;;;;;;;;;4870683;29;20206;-89
2021/10/11 01:13:02;;;;;;;31.97;10.53;;;;;;;;;;4871482;29;20253;-90
2021/10/11 01:16:13;;;;;;;22.37;11.00;;;;;;;;;;4871845;29;20211;-89
2021/10/11 01:19:26;;;;;;;24.47;10.43;;;;;;;;;;4869905;29;20213;-89
2021/10/11 01:22:40;;;;;;;23.43;10.47;;;;;;;;;;4870583;29;20213;-88
2021/10/11 01:25:52;;;;;;;25.47;10.50;;;;;;;;;;4870468;29;20194;-90
2021/10/11 01:29:04;;;;;;;23.93;9.90;;;;;;;;;;4869992;29;20283;-89
2021/10/11 01:32:15;;;;;;;28.17;11.20;;;;;;;;;;4869749;29;20294;-90
2021/10/11 01:35:27;;;;;;;20.83;10.00;;;;;;;;;;4869874;29;20269;-88
2021/10/11 01:38:40;;;;;;;24.03;9.67;;;;;;;;;;4870087;29;20245;-89
2021/10/11 01:41:52;;;;;;;25.93;11.07;;;;;;;;;;4870335;29;20349;-90
2021/10/11 01:45:04;;;;;;;29.77;10.53;;;;;;;;;;4872256;29;20217;-87
2021/10/11 01:48:16;;;;;;;36.80;10.73;;;;;;;;;;4869241;29;20213;-89
2021/10/11 01:51:27;;;;;;;55.70;11.50;;;;;;;;;;4870466;29;20209;-89
2021/10/11 01:54:40;;;;;;;86.40;11.93;;;;;;;;;;4871129;29;20348;-91
2021/10/11 01:57:52;;;;;;;78.97;12.27;;;;;;;;;;4869998;29;20229;-89
2021/10/11 02:01:04;;;;;;;47.80;11.83;;;;;;;;;;4869767;29;20230;-91
2021/10/11 02:04:15;;;;;;;33.33;11.70;;;;;;;;;;4868548;29;20202;-89
2021/10/11 02:07:26;;;;;;;28.23;11.13;;;;;;;;;;4869064;29;20241;-90
2021/10/11 02:10:39;;;;;;;19.90;10.23;;;;;;;;;;4869606;29;20259;-89
2021/10/11 02:13:51;;;;;;;40.83;10.57;;;;;;;;;;4871303;29;20595;-88
2021/10/11 02:17:02;;;;;;;17.73;9.87;;;;;;;;;;4870932;29;20218;-87
2021/10/11 02:20:14;;;;;;;32.13;9.63;;;;;;;;;;4870269;29;20266;-90
2021/10/11 02:23:28;;;;;;;19.40;9.53;;;;;;;;;;4870742;29;20221;-89
2021/10/11 02:26:41;;;;;;;20.47;9.67;;;;;;;;;;4870705;29;20319;-89
2021/10/11 02:29:52;;;;;;;17.00;8.83;;;;;;;;;;4871792;29;20201;-89
2021/10/11 02:33:11;;;;;;;22.63;9.23;;;;;;;;;;4870800;29;20234;-89
2021/10/11 02:36:21;;;;;;;24.07;10.57;;;;;;;;;;4872557;29;20205;-91
2021/10/11 02:39:33;;;;;;;22.00;10.63;;;;;;;;;;4871737;29;20222;-89
2021/10/11 02:42:46;;;;;;;24.27;9.97;;;;;;;;;;4871808;29;20285;-88
2021/10/11 02:45:58;;;;;;;23.57;11.00;;;;;;;;;;4871153;29;20250;-89
2021/10/11 02:49:12;;;;;;;25.70;10.53;;;;;;;;;;4872173;29;20210;-90
2021/10/11 02:52:28;;;;;;;20.30;10.23;;;;;;;;;;4871961;29;20265;-91
2021/10/11 02:55:38;;;;;;;26.63;11.40;;;;;;;;;;4872765;29;20362;-89
2021/10/11 02:58:51;;;;;;;25.23;10.13;;;;;;;;;;4872026;29;20333;-89
2021/10/11 03:02:03;;;;;;;22.97;9.97;;;;;;;;;;4872353;29;20194;-89
2021/10/11 03:05:14;;;;;;;46.40;10.57;;;;;;;;;;4871323;29;20214;-90
2021/10/11 03:08:26;;;;;;;22.43;10.53;;;;;;;;;;4871919;29;20193;-88
2021/10/11 03:11:38;;;;;;;40.37;11.10;;;;;;;;;;4872048;29;20194;-89
2021/10/11 03:14:51;;;;;;;24.67;10.70;;;;;;;;;;4871513;29;20186;-91
2021/10/11 03:18:11;;;;;;;38.93;10.67;;;;;;;;;;4872017;29;20305;-90
2021/10/11 03:21:23;;;;;;;30.43;11.03;;;;;;;;;;4872900;29;20249;-88
2021/10/11 03:24:35;;;;;;;22.30;11.03;;;;;;;;;;4870624;29;20279;-89
2021/10/11 03:27:47;;;;;;;27.17;10.57;;;;;;;;;;4870204;29;20210;-92
2021/10/11 03:31:00;;;;;;;27.87;11.47;;;;;;;;;;4870452;29;20198;-89
2021/10/11 03:34:12;;;;;;;35.27;11.77;;;;;;;;;;4869918;29;20368;-91
2021/10/11 03:37:24;;;;;;;23.27;10.90;;;;;;;;;;4870650;29;20300;-88
2021/10/11 03:40:35;;;;;;;24.57;10.53;;;;;;;;;;4871449;29;20280;-88
2021/10/11 03:43:46;;;;;;;33.57;11.07;;;;;;;;;;4869886;29;20189;-91
2021/10/11 03:46:59;;;;;;;18.30;9.17;;;;;;;;;;4870625;29;20779;-90
2021/10/11 03:50:11;;;;;;;24.17;11.17;;;;;;;;;;4869350;29;20194;-89
2021/10/11 03:53:23;;;;;;;20.57;10.40;;;;;;;;;;4869861;29;20222;-89
2021/10/11 03:56:34;;;;;;;20.73;10.50;;;;;;;;;;4871542;29;20193;-90
2021/10/11 03:59:46;;;;;;;58.43;10.80;;;;;;;;;;4870444;29;20771;-88
2021/10/11 04:03:26;;;;;;;25.37;9.03;;;;;;;;;;4872044;29;20211;-90
2021/10/11 04:06:39;;;;;;;20.43;8.37;;;;;;;;;;4871175;29;20185;-90
2021/10/11 04:09:50;;;;;;;30.90;9.77;;;;;;;;;;4869551;29;20237;-90
2021/10/11 04:13:04;;;;;;;37.27;9.00;;;;;;;;;;4870407;29;20221;-91
2021/10/11 04:16:16;;;;;;;99.83;11.43;;;;;;;;;;4870289;29;20225;-90
2021/10/11 04:19:27;;;;;;;24.60;9.60;;;;;;;;;;4869588;29;20209;-89
2021/10/11 04:22:40;;;;;;;21.63;9.33;;;;;;;;;;4869977;29;20277;-90
2021/10/11 04:25:51;;;;;;;21.13;10.40;;;;;;;;;;4869728;29;20346;-90
2021/10/11 04:29:03;;;;;;;21.90;9.53;;;;;;;;;;4869863;29;20189;-89
2021/10/11 04:32:16;;;;;;;18.17;8.27;;;;;;;;;;4870850;29;20578;-89
2021/10/11 04:35:28;;;;;;;19.60;8.93;;;;;;;;;;4876033;29;20205;-90
2021/10/11 04:38:40;;;;;;;18.23;8.67;;;;;;;;;;4874965;29;20213;-89
2021/10/11 04:41:56;;;;;;;19.57;9.33;;;;;;;;;;4877028;29;20205;-89
2021/10/11 04:45:10;;;;;;;18.30;8.80;;;;;;;;;;4876508;29;20273;-90
2021/10/11 04:48:21;;;;;;;16.77;9.10;;;;;;;;;;4876929;29;20666;-89
2021/10/11 04:51:34;;;;;;;17.20;9.00;;;;;;;;;;4875920;29;20206;-89
2021/10/11 04:54:46;;;;;;;17.47;9.13;;;;;;;;;;4876469;29;20237;-89
2021/10/11 04:57:58;;;;;;;19.07;9.33;;;;;;;;;;4874879;29;20201;-89
2021/10/11 05:01:09;;;;;;;21.03;9.40;;;;;;;;;;4876154;29;20190;-90
2021/10/11 05:04:21;;;;;;;23.50;9.93;;;;;;;;;;4875208;29;20362;-91
2021/10/11 05:11:27;;;;;;;23.90;9.77;;;;;;;;;;4877764;29;20246;-90
2021/10/11 05:14:39;;;;;;;23.00;9.93;;;;;;;;;;4876703;29;20230;-92
2021/10/11 05:17:51;;;;;;;23.87;10.33;;;;;;;;;;4875761;29;20198;-90
2021/10/11 05:21:06;;;;;;;25.20;10.67;;;;;;;;;;4877099;29;20221;-89
2021/10/11 05:24:18;;;;;;;30.37;10.80;;;;;;;;;;4874335;29;20210;-88
2021/10/11 05:27:33;;;;;;;25.43;10.83;;;;;;;;;;4878273;29;20202;-89
2021/10/11 05:34:13;;;;;;;32.57;11.20;;;;;;;;;;4876018;29;20241;-91
2021/10/11 05:37:27;;;;;;;28.10;11.50;;;;;;;;;;4876919;29;20681;-90
2021/10/11 05:40:39;;;;;;;27.03;11.00;;;;;;;;;;4876355;29;20259;-89
2021/10/11 05:43:53;;;;;;;25.83;11.03;;;;;;;;;;4874978;29;20222;-90
2021/10/11 05:47:05;;;;;;;27.00;11.60;;;;;;;;;;4875113;29;20190;-88
2021/10/11 05:50:17;;;;;;;31.77;11.03;;;;;;;;;;4876196;29;20232;-89
2021/10/11 05:53:30;;;;;;;22.73;11.23;;;;;;;;;;4874358;29;20217;-89
2021/10/11 05:56:42;;;;;;;23.53;10.37;;;;;;;;;;4875422;29;20190;-89
2021/10/11 05:59:55;;;;;;;27.87;10.43;;;;;;;;;;4875424;29;20335;-92
2021/10/11 06:03:07;;;;;;;26.90;10.60;;;;;;;;;;4875493;29;20205;-90
2021/10/11 06:06:19;;;;;;;26.13;9.80;;;;;;;;;;4876558;29;20210;-90
2021/10/11 06:09:33;;;;;;;36.30;10.73;;;;;;;;;;4874632;29;20241;-87
2021/10/11 06:12:45;;;;;;;26.33;10.50;;;;;;;;;;4875166;29;20206;-90
2021/10/11 06:15:59;;;;;;;23.67;9.97;;;;;;;;;;4878863;29;20193;-90
2021/10/11 06:19:14;;;;;;;38.47;12.30;;;;;;;;;;4877636;29;20296;-90
2021/10/11 06:22:26;;;;;;;26.00;10.87;;;;;;;;;;4877963;29;20243;-90
2021/10/11 06:25:38;;;;;;;34.97;11.57;;;;;;;;;;4876981;29;20185;-90
2021/10/11 06:28:52;;;;;;;25.17;10.53;;;;;;;;;;4859038;29;20199;-91
2021/10/11 06:32:06;;;;;;;23.90;11.00;;;;;;;;;;4856722;29;20202;-90
2021/10/11 22:07:03;;;;;;;35.03;17.75;;;;;;;;;;4894665;29;20248;-89
2021/10/11 22:10:14;;;;;;;40.00;19.58;;;;;;;;;;4893455;29;20197;-91
2021/10/11 22:13:28;;;;;;;40.10;20.92;;;;;;;;;;4893309;29;20655;-90
2021/10/11 22:16:40;;;;;;;41.83;18.80;;;;;;;;;;4893018;29;20269;-93
2021/10/11 22:19:52;;;;;;;44.63;20.58;;;;;;;;;;4892339;29;20503;-91
2021/10/11 22:46:48;;;;;;;38.95;19.25;;;;;;;;;;6211115;22;1355804;-92
2021/10/11 22:49:54;;;;;;;39.83;17.92;;;;;;;;;;6253051;23;20196;-90
2021/10/11 22:52:59;;;;;;;35.05;17.63;;;;;;;;;;6249961;23;20655;-91
2021/10/11 22:56:04;;;;;;;38.08;18.67;;;;;;;;;;6249375;23;20174;-90
2021/10/11 22:59:09;;;;;;;36.80;19.50;;;;;;;;;;6250079;23;20189;-90
2021/10/11 23:02:16;;;;;;;37.00;19.50;;;;;;;;;;6248942;23;20190;-90
2021/10/11 23:05:22;;;;;;;38.53;19.77;;;;;;;;;;6250177;23;20174;-91
2021/10/11 23:08:27;;;;;;;37.95;20.38;;;;;;;;;;6250185;23;20618;-91
2021/10/11 23:11:32;;;;;;;36.85;18.08;;;;;;;;;;6249010;23;20217;-92
2021/10/11 23:14:37;;;;;;;34.97;18.67;;;;;;;;;;6250871;23;20162;-91
2021/10/11 23:17:43;;;;;;;39.45;19.73;;;;;;;;;;6248677;23;20205;-92
2021/10/11 23:20:49;;;;;;;39.13;18.33;;;;;;;;;;6247208;23;20166;-90
2021/10/11 23:23:54;;;;;;;34.28;18.38;;;;;;;;;;6248862;22;20162;-90
2021/10/11 23:27:00;;;;;;;35.47;18.92;;;;;;;;;;6250315;22;20166;-91
2021/10/11 23:30:05;;;;;;;37.42;19.83;;;;;;;;;;6250146;23;20166;-90
2021/10/11 23:33:13;;;;;;;40.38;19.90;;;;;;;;;;6252417;23;20222;-90
2021/10/11 23:36:18;;;;;;;35.33;18.27;;;;;;;;;;6245009;23;20253;-91
2021/10/11 23:39:24;;;;;;;38.47;18.33;;;;;;;;;;6241243;22;20197;-92
2021/10/11 23:42:29;;;;;;;41.67;19.42;;;;;;;;;;6242808;23;20226;-90
2021/10/11 23:45:34;;;;;;;39.08;19.27;;;;;;;;;;6243447;23;20197;-89
2021/10/11 23:48:41;;;;;;;35.67;18.75;;;;;;;;;;6261795;22;20154;-91
2021/10/11 23:51:46;;;;;;;36.67;19.05;;;;;;;;;;6259913;23;20185;-91
2021/10/11 23:54:51;;;;;;;36.42;19.92;;;;;;;;;;6261102;23;20182;-91
